Durban, South Africa
Current Conditions -  °F | °C
As of 8:00 PM on Saturday 20 Dec 2014 (Local Time) from FALE Reporting Station
Overcast Overcast  
Wind Chill: 73°   Ceiling: 1800
Heat Index: 73°   Visibility: 6mi
Dew Point: 68°   Wind: 8mph
Humidity: 83%   Direction: 200°SSW
Pressure: 29.94"   Gusts: NA
Location:  29.87°S, 30.99°E
Report Text: FALE 201800Z 20007KT 9999 FEW015 BKN018 OVC035 23/20 Q1014 NOSIG
Loading
Personal Weather Stations






























Interactive Weather Map New forecast layout! Learn more

10-Day Weather Forecast

Advertisements
Track Severe Weather on mobile